Startown, North Carolina
Current Conditions -  °F | °C
As of 1:53 AM on Sunday 23 Nov 2014 (Local Time) from KHKY Reporting Station
Overcast Overcast  
Wind Chill: 43°   Ceiling: 5000
Heat Index: 43°   Visibility: 10mi
Dew Point: 27°   Wind: 0mph
Humidity: 53%   Direction: NA
Pressure: 30.27"   Gusts: NA
Location:  35.6271°N, 81.2599°W
Report Text: KHKY 230653Z AUTO 00000KT 10SM SCT038 OVC050 06/M03 A3027 RMK AO2 SLP241 T00611028
Loading
Personal Weather Stations






























Interactive Weather Map New forecast layout! Learn more

10-Day Weather Forecast

Advertisements
Track Severe Weather on mobile